Horse Shoe, North Carolina
Current Conditions -  °F | °C
As of 4:54 AM on Thursday 23 Oct 2014 (Local Time) from KAVL Reporting Station
Clear Clear  
Wind Chill: 37°   Ceiling: Unl
Heat Index: 43°   Visibility: 10mi
Dew Point: 35°   Wind: 10mph
Humidity: 74%   Direction: 330°NNW
Pressure: 30.13"   Gusts: NA
Location:  35.38°N, 82.56°W
Report Text: KAVL 230854Z AUTO 33009KT 10SM CLR 06/02 A3013 RMK AO2 SLP197 T00610017 56004
Loading
Personal Weather Stations






























Interactive Weather Map
Tropical Storm Tracking
New forecast layout! Learn more

10-Day Weather Forecast

Advertisements
Track Severe Weather on mobile